Main page
Satellite images 15-day forecastsClimateMarine weather Cyclones Lightning AirportsFAQ Newsletter About
Weather : Europe Africa North America South America Asia Australia-Oceania Others
Languages Contact

Frankfurt, Germany

latitude: 50-03N, longitude: 008-36E, elevation: 111 m


METAR: EDDF 220920Z 22006KT 9999 FEW028 BKN090 BKN250 17/09 Q1015 NOSIG
short-TAF: out of date (50792 hours)
long-TAF: EDDF 220500Z 2206/2312 20005KT CAVOK BECMG 2209/2212 22010KT BECMG 2218/2221 19005KT

Time: 11:49 (09:49 UTC)

Current weather observation

The report was made 29 minutes ago, at 09:20 UTC  
Wind 06 kt from the Southwest
Temperature 17°C
Humidity 59%
Pressure 1015 hPa
Visibility 10 km or more
Few clouds at a height of 2800 ft
Broken clouds at a height of 9000 ft
Broken clouds at a height of 25000 ft

Change units

Forecast

The report was made 4 hours and 22 minutes ago, at 05:27 UTC  
Forecast valid from 22 at 06 UTC to 23 at 12 UTC
Wind 05 kt from the South/Southwest
Visibility 10 km or more
no clouds below 1500 m and no cumulonimbus
Becoming
from 22 at 09 UTC to 22 at 12 UTC
Wind 10 kt from the Southwest
Becoming
from 22 at 18 UTC to 22 at 21 UTC
Wind 05 kt from the South
The information on this site is subject to a disclaimer
Weather : Europe Africa North America South America Asia Australia-Oceania Others
Satellite images 15-day forecastsClimateMarine weather Cyclones Lightning AirportsFAQ Languages Contact Newsletter About